sensor_id;sensor_type;location;lat;lon;timestamp;P1;durP1;ratioP1;P2;durP2;ratioP2
59314;SDS011;46521;50.160;20.802;2022-10-10T00:04:36;14.83;;;9.38;;
59314;SDS011;46521;50.160;20.802;2022-10-10T00:14:38;14.65;;;9.95;;
59314;SDS011;46521;50.160;20.802;2022-10-10T00:24:39;15.65;;;9.60;;
59314;SDS011;46521;50.160;20.802;2022-10-10T00:34:41;13.50;;;7.90;;
59314;SDS011;46521;50.160;20.802;2022-10-10T00:44:43;15.55;;;9.60;;
59314;SDS011;46521;50.160;20.802;2022-10-10T00:54:46;15.57;;;9.53;;
59314;SDS011;46521;50.160;20.802;2022-10-10T01:04:48;17.80;;;11.63;;
59314;SDS011;46521;50.160;20.802;2022-10-10T01:25:22;18.10;;;10.70;;
59314;SDS011;46521;50.160;20.802;2022-10-10T01:35:58;22.40;;;14.70;;
59314;SDS011;46521;50.160;20.802;2022-10-10T01:46:27;19.70;;;12.30;;
59314;SDS011;46521;50.160;20.802;2022-10-10T01:56:43;17.60;;;9.65;;
59314;SDS011;46521;50.160;20.802;2022-10-10T02:07:08;20.45;;;11.10;;
59314;SDS011;46521;50.160;20.802;2022-10-10T02:17:15;15.50;;;8.97;;
59314;SDS011;46521;50.160;20.802;2022-10-10T02:37:31;16.15;;;9.85;;
59314;SDS011;46521;50.160;20.802;2022-10-10T02:47:33;16.57;;;12.43;;
59314;SDS011;46521;50.160;20.802;2022-10-10T02:57:34;19.17;;;10.83;;
59314;SDS011;46521;50.160;20.802;2022-10-10T03:07:36;18.30;;;11.70;;
59314;SDS011;46521;50.160;20.802;2022-10-10T03:17:38;17.03;;;10.63;;
59314;SDS011;46521;50.160;20.802;2022-10-10T03:27:39;18.30;;;10.20;;
59314;SDS011;46521;50.160;20.802;2022-10-10T03:37:41;15.30;;;10.00;;
59314;SDS011;46521;50.160;20.802;2022-10-10T03:47:42;17.05;;;9.65;;
59314;SDS011;46521;50.160;20.802;2022-10-10T03:57:44;14.30;;;8.70;;
59314;SDS011;46521;50.160;20.802;2022-10-10T04:07:45;14.60;;;7.70;;
59314;SDS011;46521;50.160;20.802;2022-10-10T04:17:46;13.65;;;8.00;;
59314;SDS011;46521;50.160;20.802;2022-10-10T04:27:48;15.10;;;8.50;;
59314;SDS011;46521;50.160;20.802;2022-10-10T04:37:50;17.00;;;9.90;;
59314;SDS011;46521;50.160;20.802;2022-10-10T04:47:53;19.57;;;9.97;;
59314;SDS011;46521;50.160;20.802;2022-10-10T04:57:55;14.50;;;8.05;;
59314;SDS011;46521;50.160;20.802;2022-10-10T05:07:56;14.13;;;8.13;;
59314;SDS011;46521;50.160;20.802;2022-10-10T05:17:58;13.20;;;7.55;;
59314;SDS011;46521;50.160;20.802;2022-10-10T05:27:59;13.20;;;7.40;;
59314;SDS011;46521;50.160;20.802;2022-10-10T05:38:00;12.90;;;8.23;;
59314;SDS011;46521;50.160;20.802;2022-10-10T05:48:02;14.97;;;7.87;;
59314;SDS011;46521;50.160;20.802;2022-10-10T05:58:03;17.60;;;10.03;;
59314;SDS011;46521;50.160;20.802;2022-10-10T06:08:05;14.87;;;9.33;;
59314;SDS011;46521;50.160;20.802;2022-10-10T06:18:08;15.30;;;8.35;;
59314;SDS011;46521;50.160;20.802;2022-10-10T06:28:10;14.87;;;8.80;;
59314;SDS011;46521;50.160;20.802;2022-10-10T06:38:12;13.50;;;7.80;;
59314;SDS011;46521;50.160;20.802;2022-10-10T06:48:15;15.25;;;8.38;;
59314;SDS011;46521;50.160;20.802;2022-10-10T06:58:16;11.00;;;6.90;;
59314;SDS011;46521;50.160;20.802;2022-10-10T07:08:18;9.08;;;5.33;;
59314;SDS011;46521;50.160;20.802;2022-10-10T07:18:20;9.58;;;4.85;;
59314;SDS011;46521;50.160;20.802;2022-10-10T07:28:22;10.48;;;4.88;;
59314;SDS011;46521;50.160;20.802;2022-10-10T07:38:23;8.77;;;5.47;;
59314;SDS011;46521;50.160;20.802;2022-10-10T07:48:26;8.93;;;5.45;;
59314;SDS011;46521;50.160;20.802;2022-10-10T07:58:27;7.43;;;4.10;;
59314;SDS011;46521;50.160;20.802;2022-10-10T08:08:28;9.90;;;4.47;;
59314;SDS011;46521;50.160;20.802;2022-10-10T08:18:30;8.35;;;4.20;;
59314;SDS011;46521;50.160;20.802;2022-10-10T08:28:31;8.63;;;4.20;;
59314;SDS011;46521;50.160;20.802;2022-10-10T08:38:33;9.40;;;4.17;;
59314;SDS011;46521;50.160;20.802;2022-10-10T08:48:36;7.77;;;4.03;;
59314;SDS011;46521;50.160;20.802;2022-10-10T08:58:41;7.30;;;4.00;;
59314;SDS011;46521;50.160;20.802;2022-10-10T09:09:12;7.10;;;3.45;;
59314;SDS011;46521;50.160;20.802;2022-10-10T09:29:48;6.37;;;3.10;;
59314;SDS011;46521;50.160;20.802;2022-10-10T09:50:27;7.55;;;2.90;;
59314;SDS011;46521;50.160;20.802;2022-10-10T10:00:32;5.83;;;2.23;;
59314;SDS011;46521;50.160;20.802;2022-10-10T10:10:37;6.47;;;2.43;;
59314;SDS011;46521;50.160;20.802;2022-10-10T10:20:40;4.40;;;2.20;;
59314;SDS011;46521;50.160;20.802;2022-10-10T10:30:43;6.90;;;2.10;;
59314;SDS011;46521;50.160;20.802;2022-10-10T11:11:58;5.00;;;1.85;;
59314;SDS011;46521;50.160;20.802;2022-10-10T11:32:12;7.70;;;2.40;;
59314;SDS011;46521;50.160;20.802;2022-10-10T11:42:18;5.70;;;2.10;;
59314;SDS011;46521;50.160;20.802;2022-10-10T11:52:36;4.77;;;2.23;;
59314;SDS011;46521;50.160;20.802;2022-10-10T12:02:45;5.80;;;2.20;;
59314;SDS011;46521;50.160;20.802;2022-10-10T12:12:48;5.80;;;2.20;;
59314;SDS011;46521;50.160;20.802;2022-10-10T12:43:51;5.23;;;2.08;;
59314;SDS011;46521;50.160;20.802;2022-10-10T12:54:26;7.80;;;2.10;;
59314;SDS011;46521;50.160;20.802;2022-10-10T13:04:31;5.73;;;2.15;;
59314;SDS011;46521;50.160;20.802;2022-10-10T13:14:38;6.33;;;2.20;;
59314;SDS011;46521;50.160;20.802;2022-10-10T13:24:41;4.70;;;2.05;;
59314;SDS011;46521;50.160;20.802;2022-10-10T13:35:19;5.03;;;1.63;;
59314;SDS011;46521;50.160;20.802;2022-10-10T13:55:38;8.48;;;2.68;;
59314;SDS011;46521;50.160;20.802;2022-10-10T14:05:41;7.20;;;2.90;;
59314;SDS011;46521;50.160;20.802;2022-10-10T14:15:45;6.68;;;2.43;;
59314;SDS011;46521;50.160;20.802;2022-10-10T14:25:47;5.90;;;1.90;;
59314;SDS011;46521;50.160;20.802;2022-10-10T14:35:50;6.70;;;2.00;;
59314;SDS011;46521;50.160;20.802;2022-10-10T14:45:52;5.57;;;2.00;;
59314;SDS011;46521;50.160;20.802;2022-10-10T14:55:54;10.53;;;4.47;;
59314;SDS011;46521;50.160;20.802;2022-10-10T15:05:55;6.90;;;2.65;;
59314;SDS011;46521;50.160;20.802;2022-10-10T15:15:57;7.40;;;2.90;;
59314;SDS011;46521;50.160;20.802;2022-10-10T15:25:58;10.73;;;4.63;;
59314;SDS011;46521;50.160;20.802;2022-10-10T15:36:02;10.40;;;4.20;;
59314;SDS011;46521;50.160;20.802;2022-10-10T15:46:06;14.20;;;6.20;;
59314;SDS011;46521;50.160;20.802;2022-10-10T15:56:09;12.88;;;6.08;;
59314;SDS011;46521;50.160;20.802;2022-10-10T16:06:15;10.27;;;4.00;;
59314;SDS011;46521;50.160;20.802;2022-10-10T16:16:19;9.43;;;4.93;;
59314;SDS011;46521;50.160;20.802;2022-10-10T16:26:23;14.18;;;5.85;;
59314;SDS011;46521;50.160;20.802;2022-10-10T16:36:31;14.73;;;7.08;;
59314;SDS011;46521;50.160;20.802;2022-10-10T16:46:34;20.50;;;12.20;;
59314;SDS011;46521;50.160;20.802;2022-10-10T16:56:35;13.88;;;7.15;;
59314;SDS011;46521;50.160;20.802;2022-10-10T17:06:37;15.40;;;7.90;;
59314;SDS011;46521;50.160;20.802;2022-10-10T17:16:38;18.27;;;8.67;;
59314;SDS011;46521;50.160;20.802;2022-10-10T17:26:40;12.80;;;7.00;;
59314;SDS011;46521;50.160;20.802;2022-10-10T17:36:41;15.90;;;7.90;;
59314;SDS011;46521;50.160;20.802;2022-10-10T17:46:43;14.10;;;7.85;;
59314;SDS011;46521;50.160;20.802;2022-10-10T17:56:44;15.47;;;7.37;;
59314;SDS011;46521;50.160;20.802;2022-10-10T18:06:46;16.28;;;7.90;;
59314;SDS011;46521;50.160;20.802;2022-10-10T18:16:47;19.57;;;9.33;;
59314;SDS011;46521;50.160;20.802;2022-10-10T18:26:48;16.57;;;8.90;;
59314;SDS011;46521;50.160;20.802;2022-10-10T18:36:49;16.40;;;9.70;;
59314;SDS011;46521;50.160;20.802;2022-10-10T18:46:51;20.60;;;9.70;;
59314;SDS011;46521;50.160;20.802;2022-10-10T18:56:52;22.60;;;10.18;;
59314;SDS011;46521;50.160;20.802;2022-10-10T19:06:53;17.50;;;9.78;;
59314;SDS011;46521;50.160;20.802;2022-10-10T19:16:55;18.00;;;9.65;;
59314;SDS011;46521;50.160;20.802;2022-10-10T19:26:56;17.15;;;8.70;;
59314;SDS011;46521;50.160;20.802;2022-10-10T19:36:57;16.50;;;8.77;;
59314;SDS011;46521;50.160;20.802;2022-10-10T19:46:59;16.20;;;8.73;;
59314;SDS011;46521;50.160;20.802;2022-10-10T19:57:00;15.30;;;8.10;;
59314;SDS011;46521;50.160;20.802;2022-10-10T20:07:04;14.30;;;8.30;;
59314;SDS011;46521;50.160;20.802;2022-10-10T20:17:05;16.23;;;8.10;;
59314;SDS011;46521;50.160;20.802;2022-10-10T20:27:06;18.78;;;10.30;;
59314;SDS011;46521;50.160;20.802;2022-10-10T20:37:08;17.40;;;10.05;;
59314;SDS011;46521;50.160;20.802;2022-10-10T20:47:09;17.97;;;9.53;;
59314;SDS011;46521;50.160;20.802;2022-10-10T20:57:10;17.07;;;9.67;;
59314;SDS011;46521;50.160;20.802;2022-10-10T21:07:12;29.70;;;15.60;;
59314;SDS011;46521;50.160;20.802;2022-10-10T21:17:14;25.00;;;12.30;;
59314;SDS011;46521;50.160;20.802;2022-10-10T21:27:15;23.43;;;11.23;;
59314;SDS011;46521;50.160;20.802;2022-10-10T21:37:16;17.97;;;10.13;;
59314;SDS011;46521;50.160;20.802;2022-10-10T21:47:18;18.13;;;10.60;;
59314;SDS011;46521;50.160;20.802;2022-10-10T21:57:19;22.80;;;12.90;;
59314;SDS011;46521;50.160;20.802;2022-10-10T22:07:20;24.23;;;13.30;;
59314;SDS011;46521;50.160;20.802;2022-10-10T22:17:22;23.00;;;13.30;;
59314;SDS011;46521;50.160;20.802;2022-10-10T22:27:23;21.03;;;10.30;;
59314;SDS011;46521;50.160;20.802;2022-10-10T22:37:24;16.25;;;9.80;;
59314;SDS011;46521;50.160;20.802;2022-10-10T22:47:26;16.05;;;9.35;;
59314;SDS011;46521;50.160;20.802;2022-10-10T22:57:28;14.00;;;8.00;;
59314;SDS011;46521;50.160;20.802;2022-10-10T23:07:30;15.03;;;7.98;;
59314;SDS011;46521;50.160;20.802;2022-10-10T23:17:31;15.38;;;8.28;;
59314;SDS011;46521;50.160;20.802;2022-10-10T23:27:32;16.88;;;9.90;;
59314;SDS011;46521;50.160;20.802;2022-10-10T23:37:34;15.90;;;8.85;;
59314;SDS011;46521;50.160;20.802;2022-10-10T23:58:06;18.18;;;9.43;;
